sensor_id;sensor_type;location;lat;lon;timestamp;temperature;humidity
8858;DHT22;4465;50.904;4.696;2024-01-15T00:01:42;2.60;99.90
8858;DHT22;4465;50.904;4.696;2024-01-15T00:04:11;2.70;99.90
8858;DHT22;4465;50.904;4.696;2024-01-15T00:06:36;2.60;99.90
8858;DHT22;4465;50.904;4.696;2024-01-15T00:09:05;2.60;99.90
8858;DHT22;4465;50.904;4.696;2024-01-15T00:11:32;2.70;99.90
8858;DHT22;4465;50.904;4.696;2024-01-15T00:13:58;2.60;99.90
8858;DHT22;4465;50.904;4.696;2024-01-15T00:16:26;2.60;99.90
8858;DHT22;4465;50.904;4.696;2024-01-15T00:18:52;2.70;99.90
8858;DHT22;4465;50.904;4.696;2024-01-15T00:21:18;2.70;99.90
8858;DHT22;4465;50.904;4.696;2024-01-15T00:23:43;2.70;99.90
8858;DHT22;4465;50.904;4.696;2024-01-15T00:26:12;2.70;99.90
8858;DHT22;4465;50.904;4.696;2024-01-15T00:28:38;2.70;99.90
8858;DHT22;4465;50.904;4.696;2024-01-15T00:31:06;2.70;99.90
8858;DHT22;4465;50.904;4.696;2024-01-15T00:33:34;2.70;99.90
8858;DHT22;4465;50.904;4.696;2024-01-15T00:36:03;2.70;99.90
8858;DHT22;4465;50.904;4.696;2024-01-15T00:38:31;2.70;99.90
8858;DHT22;4465;50.904;4.696;2024-01-15T00:40:59;2.70;99.90
8858;DHT22;4465;50.904;4.696;2024-01-15T00:43:25;2.70;99.90
8858;DHT22;4465;50.904;4.696;2024-01-15T00:45:51;2.70;99.90
8858;DHT22;4465;50.904;4.696;2024-01-15T00:48:19;2.70;99.90
8858;DHT22;4465;50.904;4.696;2024-01-15T00:50:47;2.70;99.90
8858;DHT22;4465;50.904;4.696;2024-01-15T00:53:15;2.80;99.90
8858;DHT22;4465;50.904;4.696;2024-01-15T00:55:41;2.80;99.90
8858;DHT22;4465;50.904;4.696;2024-01-15T00:58:07;2.80;99.90
8858;DHT22;4465;50.904;4.696;2024-01-15T01:00:33;2.80;99.90
8858;DHT22;4465;50.904;4.696;2024-01-15T01:03:01;2.90;99.90
8858;DHT22;4465;50.904;4.696;2024-01-15T01:05:26;2.80;99.90
8858;DHT22;4465;50.904;4.696;2024-01-15T01:07:52;2.90;99.90
8858;DHT22;4465;50.904;4.696;2024-01-15T01:10:18;2.90;99.90
8858;DHT22;4465;50.904;4.696;2024-01-15T01:12:44;2.90;99.90
8858;DHT22;4465;50.904;4.696;2024-01-15T01:15:12;2.90;99.90
8858;DHT22;4465;50.904;4.696;2024-01-15T01:17:38;2.90;99.90
8858;DHT22;4465;50.904;4.696;2024-01-15T01:20:04;2.90;99.90
8858;DHT22;4465;50.904;4.696;2024-01-15T01:22:32;2.90;99.90
8858;DHT22;4465;50.904;4.696;2024-01-15T01:25:00;2.90;99.90
8858;DHT22;4465;50.904;4.696;2024-01-15T01:27:28;2.90;99.90
8858;DHT22;4465;50.904;4.696;2024-01-15T01:29:54;2.90;99.90
8858;DHT22;4465;50.904;4.696;2024-01-15T01:32:22;2.90;99.90
8858;DHT22;4465;50.904;4.696;2024-01-15T01:34:48;2.90;99.90
8858;DHT22;4465;50.904;4.696;2024-01-15T01:37:14;2.90;99.90
8858;DHT22;4465;50.904;4.696;2024-01-15T01:39:43;2.80;99.90
8858;DHT22;4465;50.904;4.696;2024-01-15T01:42:10;2.80;99.90
8858;DHT22;4465;50.904;4.696;2024-01-15T01:44:36;2.70;99.90
8858;DHT22;4465;50.904;4.696;2024-01-15T01:47:02;2.70;99.90
8858;DHT22;4465;50.904;4.696;2024-01-15T01:49:28;2.70;99.90
8858;DHT22;4465;50.904;4.696;2024-01-15T01:51:58;2.70;99.90
8858;DHT22;4465;50.904;4.696;2024-01-15T01:54:25;2.70;99.90
8858;DHT22;4465;50.904;4.696;2024-01-15T01:56:54;2.60;99.90
8858;DHT22;4465;50.904;4.696;2024-01-15T01:59:23;2.60;99.90
8858;DHT22;4465;50.904;4.696;2024-01-15T02:01:51;2.80;99.90
8858;DHT22;4465;50.904;4.696;2024-01-15T02:04:18;2.70;99.90
8858;DHT22;4465;50.904;4.696;2024-01-15T02:06:44;2.70;99.90
8858;DHT22;4465;50.904;4.696;2024-01-15T02:09:10;2.70;99.90
8858;DHT22;4465;50.904;4.696;2024-01-15T02:11:36;2.70;99.90
8858;DHT22;4465;50.904;4.696;2024-01-15T02:14:05;2.70;99.90
8858;DHT22;4465;50.904;4.696;2024-01-15T02:16:31;2.60;99.90
8858;DHT22;4465;50.904;4.696;2024-01-15T02:18:57;2.60;99.90
8858;DHT22;4465;50.904;4.696;2024-01-15T02:21:22;2.70;99.90
8858;DHT22;4465;50.904;4.696;2024-01-15T02:23:48;2.70;99.90
8858;DHT22;4465;50.904;4.696;2024-01-15T02:26:14;2.60;99.90
8858;DHT22;4465;50.904;4.696;2024-01-15T02:28:40;2.60;99.90
8858;DHT22;4465;50.904;4.696;2024-01-15T02:31:07;2.70;99.90
8858;DHT22;4465;50.904;4.696;2024-01-15T02:33:35;2.60;99.90
8858;DHT22;4465;50.904;4.696;2024-01-15T02:36:01;2.70;99.90
8858;DHT22;4465;50.904;4.696;2024-01-15T02:38:26;2.70;99.90
8858;DHT22;4465;50.904;4.696;2024-01-15T02:40:52;2.70;99.90
8858;DHT22;4465;50.904;4.696;2024-01-15T02:43:20;2.70;99.90
8858;DHT22;4465;50.904;4.696;2024-01-15T02:45:46;2.70;99.90
8858;DHT22;4465;50.904;4.696;2024-01-15T02:48:12;2.80;99.90
8858;DHT22;4465;50.904;4.696;2024-01-15T02:50:38;2.70;99.90
8858;DHT22;4465;50.904;4.696;2024-01-15T02:53:04;2.70;99.90
8858;DHT22;4465;50.904;4.696;2024-01-15T02:55:30;2.70;99.90
8858;DHT22;4465;50.904;4.696;2024-01-15T02:57:56;2.70;99.90
8858;DHT22;4465;50.904;4.696;2024-01-15T03:00:24;2.70;99.90
8858;DHT22;4465;50.904;4.696;2024-01-15T03:02:50;2.70;99.90
8858;DHT22;4465;50.904;4.696;2024-01-15T03:05:16;2.70;99.90
8858;DHT22;4465;50.904;4.696;2024-01-15T03:07:42;2.70;99.90
8858;DHT22;4465;50.904;4.696;2024-01-15T03:10:08;2.70;99.90
8858;DHT22;4465;50.904;4.696;2024-01-15T03:12:33;2.70;99.90
8858;DHT22;4465;50.904;4.696;2024-01-15T03:14:59;2.70;99.90
8858;DHT22;4465;50.904;4.696;2024-01-15T03:17:25;2.70;99.90
8858;DHT22;4465;50.904;4.696;2024-01-15T03:19:56;2.70;99.90
8858;DHT22;4465;50.904;4.696;2024-01-15T03:22:24;2.80;99.90
8858;DHT22;4465;50.904;4.696;2024-01-15T03:24:50;2.80;99.90
8858;DHT22;4465;50.904;4.696;2024-01-15T03:27:16;2.80;99.90
8858;DHT22;4465;50.904;4.696;2024-01-15T03:29:42;2.80;99.90
8858;DHT22;4465;50.904;4.696;2024-01-15T03:32:10;2.80;99.90
8858;DHT22;4465;50.904;4.696;2024-01-15T03:34:36;2.80;99.90
8858;DHT22;4465;50.904;4.696;2024-01-15T03:37:02;2.80;99.90
8858;DHT22;4465;50.904;4.696;2024-01-15T03:39:29;2.80;99.90
8858;DHT22;4465;50.904;4.696;2024-01-15T03:41:55;2.80;99.90
8858;DHT22;4465;50.904;4.696;2024-01-15T03:44:21;2.80;99.90
8858;DHT22;4465;50.904;4.696;2024-01-15T03:46:46;2.80;99.90
8858;DHT22;4465;50.904;4.696;2024-01-15T03:49:15;2.90;99.90
8858;DHT22;4465;50.904;4.696;2024-01-15T03:51:40;2.90;99.90
8858;DHT22;4465;50.904;4.696;2024-01-15T03:54:06;2.90;99.90
8858;DHT22;4465;50.904;4.696;2024-01-15T03:56:32;2.90;99.90
8858;DHT22;4465;50.904;4.696;2024-01-15T03:58:58;2.90;99.90
8858;DHT22;4465;50.904;4.696;2024-01-15T04:01:24;2.80;99.90
8858;DHT22;4465;50.904;4.696;2024-01-15T04:03:49;2.80;99.90
8858;DHT22;4465;50.904;4.696;2024-01-15T04:06:15;2.80;99.90
8858;DHT22;4465;50.904;4.696;2024-01-15T04:08:41;2.80;99.90
8858;DHT22;4465;50.904;4.696;2024-01-15T04:11:09;2.80;99.90
8858;DHT22;4465;50.904;4.696;2024-01-15T04:13:35;2.80;99.90
8858;DHT22;4465;50.904;4.696;2024-01-15T04:16:01;2.70;99.90
8858;DHT22;4465;50.904;4.696;2024-01-15T04:18:29;2.70;99.90
8858;DHT22;4465;50.904;4.696;2024-01-15T04:20:55;2.70;99.90
8858;DHT22;4465;50.904;4.696;2024-01-15T04:23:21;2.70;99.90
8858;DHT22;4465;50.904;4.696;2024-01-15T04:25:47;2.70;99.90
8858;DHT22;4465;50.904;4.696;2024-01-15T04:28:13;2.70;99.90
8858;DHT22;4465;50.904;4.696;2024-01-15T04:30:41;2.60;99.90
8858;DHT22;4465;50.904;4.696;2024-01-15T04:33:09;2.70;99.90
8858;DHT22;4465;50.904;4.696;2024-01-15T04:35:35;2.60;99.90
8858;DHT22;4465;50.904;4.696;2024-01-15T04:38:01;2.60;99.90
8858;DHT22;4465;50.904;4.696;2024-01-15T04:40:26;2.60;99.90
8858;DHT22;4465;50.904;4.696;2024-01-15T04:42:53;2.60;99.90
8858;DHT22;4465;50.904;4.696;2024-01-15T04:45:19;2.60;99.90
8858;DHT22;4465;50.904;4.696;2024-01-15T04:47:48;2.50;99.90
8858;DHT22;4465;50.904;4.696;2024-01-15T04:50:14;2.50;99.90
8858;DHT22;4465;50.904;4.696;2024-01-15T04:52:42;2.50;99.90
8858;DHT22;4465;50.904;4.696;2024-01-15T04:55:10;2.50;99.90
8858;DHT22;4465;50.904;4.696;2024-01-15T04:57:36;2.40;99.90
8858;DHT22;4465;50.904;4.696;2024-01-15T05:00:04;2.40;99.90
8858;DHT22;4465;50.904;4.696;2024-01-15T05:02:31;2.30;99.90
8858;DHT22;4465;50.904;4.696;2024-01-15T05:04:56;2.40;99.90
8858;DHT22;4465;50.904;4.696;2024-01-15T05:07:25;2.30;99.90
8858;DHT22;4465;50.904;4.696;2024-01-15T05:09:53;2.40;99.90
8858;DHT22;4465;50.904;4.696;2024-01-15T05:12:18;2.30;99.90
8858;DHT22;4465;50.904;4.696;2024-01-15T05:14:47;2.30;99.90
8858;DHT22;4465;50.904;4.696;2024-01-15T05:17:12;2.30;99.90
8858;DHT22;4465;50.904;4.696;2024-01-15T05:19:40;2.30;99.90
8858;DHT22;4465;50.904;4.696;2024-01-15T05:22:08;2.30;99.90
8858;DHT22;4465;50.904;4.696;2024-01-15T05:24:37;2.30;99.90
8858;DHT22;4465;50.904;4.696;2024-01-15T05:27:03;2.30;99.90
8858;DHT22;4465;50.904;4.696;2024-01-15T05:29:29;2.20;99.90
8858;DHT22;4465;50.904;4.696;2024-01-15T05:31:54;2.30;99.90
8858;DHT22;4465;50.904;4.696;2024-01-15T05:34:20;2.30;99.90
8858;DHT22;4465;50.904;4.696;2024-01-15T05:36:46;2.30;99.90
8858;DHT22;4465;50.904;4.696;2024-01-15T05:39:13;2.30;99.90
8858;DHT22;4465;50.904;4.696;2024-01-15T05:41:39;2.20;99.90
8858;DHT22;4465;50.904;4.696;2024-01-15T05:44:05;2.30;99.90
8858;DHT22;4465;50.904;4.696;2024-01-15T05:46:30;2.20;99.90
8858;DHT22;4465;50.904;4.696;2024-01-15T05:48:59;2.20;99.90
8858;DHT22;4465;50.904;4.696;2024-01-15T05:51:24;2.30;99.90
8858;DHT22;4465;50.904;4.696;2024-01-15T05:53:50;2.20;99.90
8858;DHT22;4465;50.904;4.696;2024-01-15T05:56:21;2.20;99.90
8858;DHT22;4465;50.904;4.696;2024-01-15T05:58:47;2.20;99.90
8858;DHT22;4465;50.904;4.696;2024-01-15T06:01:12;2.20;99.90
8858;DHT22;4465;50.904;4.696;2024-01-15T06:03:41;2.10;99.90
8858;DHT22;4465;50.904;4.696;2024-01-15T06:06:09;2.10;99.90
8858;DHT22;4465;50.904;4.696;2024-01-15T06:08:34;2.10;99.90
8858;DHT22;4465;50.904;4.696;2024-01-15T06:11:00;2.10;99.90
8858;DHT22;4465;50.904;4.696;2024-01-15T06:13:26;2.10;99.90
8858;DHT22;4465;50.904;4.696;2024-01-15T06:15:52;2.10;99.90
8858;DHT22;4465;50.904;4.696;2024-01-15T06:18:18;2.10;99.90
8858;DHT22;4465;50.904;4.696;2024-01-15T06:20:47;2.10;99.90
8858;DHT22;4465;50.904;4.696;2024-01-15T06:23:12;2.10;99.90
8858;DHT22;4465;50.904;4.696;2024-01-15T06:25:38;2.10;99.90
8858;DHT22;4465;50.904;4.696;2024-01-15T06:28:04;2.10;99.90
8858;DHT22;4465;50.904;4.696;2024-01-15T06:30:30;2.10;99.90
8858;DHT22;4465;50.904;4.696;2024-01-15T06:32:59;2.10;99.90
8858;DHT22;4465;50.904;4.696;2024-01-15T06:35:25;2.00;99.90
8858;DHT22;4465;50.904;4.696;2024-01-15T06:37:51;2.00;99.90
8858;DHT22;4465;50.904;4.696;2024-01-15T06:40:16;2.00;99.90
8858;DHT22;4465;50.904;4.696;2024-01-15T06:42:42;2.00;99.90
8858;DHT22;4465;50.904;4.696;2024-01-15T06:45:10;2.00;99.90
8858;DHT22;4465;50.904;4.696;2024-01-15T06:47:36;2.00;99.90
8858;DHT22;4465;50.904;4.696;2024-01-15T06:50:02;1.90;99.90
8858;DHT22;4465;50.904;4.696;2024-01-15T06:52:28;1.90;99.90
8858;DHT22;4465;50.904;4.696;2024-01-15T06:54:54;1.90;99.90
8858;DHT22;4465;50.904;4.696;2024-01-15T06:57:22;2.00;99.90
8858;DHT22;4465;50.904;4.696;2024-01-15T06:59:48;2.00;99.90
8858;DHT22;4465;50.904;4.696;2024-01-15T07:02:16;2.00;99.90
8858;DHT22;4465;50.904;4.696;2024-01-15T07:04:44;2.00;99.90
8858;DHT22;4465;50.904;4.696;2024-01-15T07:07:10;1.90;99.90
8858;DHT22;4465;50.904;4.696;2024-01-15T07:09:36;1.90;99.90
8858;DHT22;4465;50.904;4.696;2024-01-15T07:12:02;1.90;99.90
8858;DHT22;4465;50.904;4.696;2024-01-15T07:14:28;1.90;99.90
8858;DHT22;4465;50.904;4.696;2024-01-15T07:16:54;1.90;99.90
8858;DHT22;4465;50.904;4.696;2024-01-15T07:19:22;2.00;99.90
8858;DHT22;4465;50.904;4.696;2024-01-15T07:21:48;2.00;99.90
8858;DHT22;4465;50.904;4.696;2024-01-15T07:24:14;2.00;99.90
8858;DHT22;4465;50.904;4.696;2024-01-15T07:26:40;1.90;99.90
8858;DHT22;4465;50.904;4.696;2024-01-15T07:29:05;2.00;99.90
8858;DHT22;4465;50.904;4.696;2024-01-15T07:31:34;1.90;99.90
8858;DHT22;4465;50.904;4.696;2024-01-15T07:33:59;1.90;99.90
8858;DHT22;4465;50.904;4.696;2024-01-15T07:36:25;1.90;99.90
8858;DHT22;4465;50.904;4.696;2024-01-15T07:38:51;1.90;99.90
8858;DHT22;4465;50.904;4.696;2024-01-15T07:41:17;1.90;99.90
8858;DHT22;4465;50.904;4.696;2024-01-15T07:43:48;1.90;99.90
8858;DHT22;4465;50.904;4.696;2024-01-15T07:46:13;1.90;99.90
8858;DHT22;4465;50.904;4.696;2024-01-15T07:48:41;2.00;99.90
8858;DHT22;4465;50.904;4.696;2024-01-15T07:51:07;1.90;99.90
8858;DHT22;4465;50.904;4.696;2024-01-15T07:53:33;2.00;99.90
8858;DHT22;4465;50.904;4.696;2024-01-15T07:56:01;2.00;99.90
8858;DHT22;4465;50.904;4.696;2024-01-15T07:58:27;2.00;99.90
8858;DHT22;4465;50.904;4.696;2024-01-15T08:00:53;2.00;99.90
8858;DHT22;4465;50.904;4.696;2024-01-15T08:03:21;2.00;99.90
8858;DHT22;4465;50.904;4.696;2024-01-15T08:05:47;2.10;99.90
8858;DHT22;4465;50.904;4.696;2024-01-15T08:08:13;2.00;99.90
8858;DHT22;4465;50.904;4.696;2024-01-15T08:10:38;2.10;99.90
8858;DHT22;4465;50.904;4.696;2024-01-15T08:13:07;2.10;99.90
8858;DHT22;4465;50.904;4.696;2024-01-15T08:15:34;2.00;99.90
8858;DHT22;4465;50.904;4.696;2024-01-15T08:18:03;2.10;99.90
8858;DHT22;4465;50.904;4.696;2024-01-15T08:20:28;2.20;99.90
8858;DHT22;4465;50.904;4.696;2024-01-15T08:22:56;2.10;99.90
8858;DHT22;4465;50.904;4.696;2024-01-15T08:25:22;2.10;99.90
8858;DHT22;4465;50.904;4.696;2024-01-15T08:27:48;2.20;99.90
8858;DHT22;4465;50.904;4.696;2024-01-15T08:30:14;2.20;99.90
8858;DHT22;4465;50.904;4.696;2024-01-15T08:32:40;2.20;99.90
8858;DHT22;4465;50.904;4.696;2024-01-15T08:35:09;2.20;99.90
8858;DHT22;4465;50.904;4.696;2024-01-15T08:40:03;2.30;99.90
8858;DHT22;4465;50.904;4.696;2024-01-15T08:42:29;2.30;99.90
8858;DHT22;4465;50.904;4.696;2024-01-15T08:44:55;2.30;99.90
8858;DHT22;4465;50.904;4.696;2024-01-15T08:47:21;2.30;99.90
8858;DHT22;4465;50.904;4.696;2024-01-15T08:49:46;2.40;99.90
8858;DHT22;4465;50.904;4.696;2024-01-15T08:52:12;2.40;99.90
8858;DHT22;4465;50.904;4.696;2024-01-15T08:54:39;2.40;99.90
8858;DHT22;4465;50.904;4.696;2024-01-15T08:57:05;2.40;99.90
8858;DHT22;4465;50.904;4.696;2024-01-15T08:59:31;2.40;99.90
8858;DHT22;4465;50.904;4.696;2024-01-15T09:01:59;2.40;99.90
8858;DHT22;4465;50.904;4.696;2024-01-15T09:04:25;2.50;99.90
8858;DHT22;4465;50.904;4.696;2024-01-15T09:06:53;2.50;99.90
8858;DHT22;4465;50.904;4.696;2024-01-15T09:09:19;2.50;99.90
8858;DHT22;4465;50.904;4.696;2024-01-15T09:11:48;2.50;99.90
8858;DHT22;4465;50.904;4.696;2024-01-15T09:14:13;2.50;99.90
8858;DHT22;4465;50.904;4.696;2024-01-15T09:16:39;2.50;99.90
8858;DHT22;4465;50.904;4.696;2024-01-15T09:19:05;2.60;99.90
8858;DHT22;4465;50.904;4.696;2024-01-15T09:21:31;2.50;99.90
8858;DHT22;4465;50.904;4.696;2024-01-15T09:23:57;2.60;99.90
8858;DHT22;4465;50.904;4.696;2024-01-15T09:26:23;2.60;99.90
8858;DHT22;4465;50.904;4.696;2024-01-15T09:28:49;2.60;99.90
8858;DHT22;4465;50.904;4.696;2024-01-15T09:31:15;2.60;99.90
8858;DHT22;4465;50.904;4.696;2024-01-15T09:33:45;2.70;99.90
8858;DHT22;4465;50.904;4.696;2024-01-15T09:36:14;2.70;99.90
8858;DHT22;4465;50.904;4.696;2024-01-15T09:38:40;2.60;99.90
8858;DHT22;4465;50.904;4.696;2024-01-15T09:41:07;2.70;99.90
8858;DHT22;4465;50.904;4.696;2024-01-15T09:43:33;2.60;99.90
8858;DHT22;4465;50.904;4.696;2024-01-15T09:46:01;2.60;99.90
8858;DHT22;4465;50.904;4.696;2024-01-15T09:48:27;2.60;99.90
8858;DHT22;4465;50.904;4.696;2024-01-15T09:50:52;2.70;99.90
8858;DHT22;4465;50.904;4.696;2024-01-15T09:53:21;2.80;99.90
8858;DHT22;4465;50.904;4.696;2024-01-15T09:55:46;3.00;99.90
8858;DHT22;4465;50.904;4.696;2024-01-15T09:58:12;3.00;99.90
8858;DHT22;4465;50.904;4.696;2024-01-15T10:00:38;3.10;99.90
8858;DHT22;4465;50.904;4.696;2024-01-15T10:03:09;3.30;99.90
8858;DHT22;4465;50.904;4.696;2024-01-15T10:05:37;3.40;99.90
8858;DHT22;4465;50.904;4.696;2024-01-15T10:08:05;3.50;99.90
8858;DHT22;4465;50.904;4.696;2024-01-15T10:10:32;3.60;99.90
8858;DHT22;4465;50.904;4.696;2024-01-15T10:13:01;3.80;99.90
8858;DHT22;4465;50.904;4.696;2024-01-15T10:15:29;3.90;99.90
8858;DHT22;4465;50.904;4.696;2024-01-15T10:17:59;4.00;99.90
8858;DHT22;4465;50.904;4.696;2024-01-15T10:20:25;4.10;99.90
8858;DHT22;4465;50.904;4.696;2024-01-15T10:22:53;4.30;99.90
8858;DHT22;4465;50.904;4.696;2024-01-15T10:25:19;4.50;99.90
8858;DHT22;4465;50.904;4.696;2024-01-15T10:27:58;4.60;99.90
8858;DHT22;4465;50.904;4.696;2024-01-15T10:30:24;4.80;99.90
8858;DHT22;4465;50.904;4.696;2024-01-15T10:32:57;5.00;99.90
8858;DHT22;4465;50.904;4.696;2024-01-15T10:35:25;5.10;99.90
8858;DHT22;4465;50.904;4.696;2024-01-15T10:37:51;5.20;99.90
8858;DHT22;4465;50.904;4.696;2024-01-15T10:40:18;5.40;99.90
8858;DHT22;4465;50.904;4.696;2024-01-15T10:42:44;5.50;99.90
8858;DHT22;4465;50.904;4.696;2024-01-15T10:45:17;5.70;99.90
8858;DHT22;4465;50.904;4.696;2024-01-15T10:47:46;5.80;99.90
8858;DHT22;4465;50.904;4.696;2024-01-15T10:50:14;6.00;99.90
8858;DHT22;4465;50.904;4.696;2024-01-15T10:52:40;6.20;99.90
8858;DHT22;4465;50.904;4.696;2024-01-15T10:55:10;6.40;99.90
8858;DHT22;4465;50.904;4.696;2024-01-15T10:57:38;6.50;99.90
8858;DHT22;4465;50.904;4.696;2024-01-15T11:00:06;6.60;99.90
8858;DHT22;4465;50.904;4.696;2024-01-15T11:02:33;6.60;99.90
8858;DHT22;4465;50.904;4.696;2024-01-15T11:05:00;6.70;99.90
8858;DHT22;4465;50.904;4.696;2024-01-15T11:07:26;6.80;99.90
8858;DHT22;4465;50.904;4.696;2024-01-15T11:09:54;6.90;99.90
8858;DHT22;4465;50.904;4.696;2024-01-15T11:12:19;6.90;99.90
8858;DHT22;4465;50.904;4.696;2024-01-15T11:14:48;7.10;99.90
8858;DHT22;4465;50.904;4.696;2024-01-15T11:17:15;7.00;99.90
8858;DHT22;4465;50.904;4.696;2024-01-15T11:19:45;6.90;99.90
8858;DHT22;4465;50.904;4.696;2024-01-15T11:22:56;6.80;99.90
8858;DHT22;4465;50.904;4.696;2024-01-15T11:25:05;6.70;99.90
8858;DHT22;4465;50.904;4.696;2024-01-15T11:27:42;6.60;99.90
8858;DHT22;4465;50.904;4.696;2024-01-15T11:30:13;6.40;99.90
8858;DHT22;4465;50.904;4.696;2024-01-15T11:32:40;6.30;99.90
8858;DHT22;4465;50.904;4.696;2024-01-15T11:35:13;6.20;99.90
8858;DHT22;4465;50.904;4.696;2024-01-15T11:40:20;6.00;99.90
8858;DHT22;4465;50.904;4.696;2024-01-15T11:42:49;5.90;99.90
8858;DHT22;4465;50.904;4.696;2024-01-15T11:45:18;5.90;99.90
8858;DHT22;4465;50.904;4.696;2024-01-15T11:47:52;5.90;99.90
8858;DHT22;4465;50.904;4.696;2024-01-15T11:50:23;6.00;99.90
8858;DHT22;4465;50.904;4.696;2024-01-15T11:52:53;6.20;99.90
8858;DHT22;4465;50.904;4.696;2024-01-15T11:55:30;6.40;99.90
8858;DHT22;4465;50.904;4.696;2024-01-15T11:58:00;6.60;99.90
8858;DHT22;4465;50.904;4.696;2024-01-15T12:00:26;6.80;99.90
8858;DHT22;4465;50.904;4.696;2024-01-15T12:02:52;7.00;99.90
8858;DHT22;4465;50.904;4.696;2024-01-15T12:05:24;7.20;99.90
8858;DHT22;4465;50.904;4.696;2024-01-15T12:07:49;7.50;99.90
8858;DHT22;4465;50.904;4.696;2024-01-15T12:10:19;7.60;99.90
8858;DHT22;4465;50.904;4.696;2024-01-15T12:15:22;7.80;99.90
8858;DHT22;4465;50.904;4.696;2024-01-15T12:17:50;7.70;99.90
8858;DHT22;4465;50.904;4.696;2024-01-15T12:20:17;7.60;99.90
8858;DHT22;4465;50.904;4.696;2024-01-15T12:22:43;7.60;99.90
8858;DHT22;4465;50.904;4.696;2024-01-15T12:25:10;7.50;99.90
8858;DHT22;4465;50.904;4.696;2024-01-15T12:27:38;7.50;99.90
8858;DHT22;4465;50.904;4.696;2024-01-15T12:30:04;7.40;99.90
8858;DHT22;4465;50.904;4.696;2024-01-15T12:32:33;7.40;99.90
8858;DHT22;4465;50.904;4.696;2024-01-15T12:35:00;7.40;99.90
8858;DHT22;4465;50.904;4.696;2024-01-15T12:37:28;7.30;99.90
8858;DHT22;4465;50.904;4.696;2024-01-15T12:39:57;7.30;99.90
8858;DHT22;4465;50.904;4.696;2024-01-15T12:42:24;7.20;99.90
8858;DHT22;4465;50.904;4.696;2024-01-15T12:44:50;7.20;99.90
8858;DHT22;4465;50.904;4.696;2024-01-15T12:47:16;7.20;99.90
8858;DHT22;4465;50.904;4.696;2024-01-15T12:49:47;7.10;99.90
8858;DHT22;4465;50.904;4.696;2024-01-15T12:52:19;6.90;99.90
8858;DHT22;4465;50.904;4.696;2024-01-15T12:54:48;6.80;99.90
8858;DHT22;4465;50.904;4.696;2024-01-15T12:57:14;6.70;99.90
8858;DHT22;4465;50.904;4.696;2024-01-15T12:59:39;6.70;99.90
8858;DHT22;4465;50.904;4.696;2024-01-15T13:02:05;6.60;99.90
8858;DHT22;4465;50.904;4.696;2024-01-15T13:04:31;6.40;99.90
8858;DHT22;4465;50.904;4.696;2024-01-15T13:06:59;6.20;99.90
8858;DHT22;4465;50.904;4.696;2024-01-15T13:09:25;6.10;99.90
8858;DHT22;4465;50.904;4.696;2024-01-15T13:11:51;6.00;99.90
8858;DHT22;4465;50.904;4.696;2024-01-15T13:14:18;5.90;99.90
8858;DHT22;4465;50.904;4.696;2024-01-15T13:16:43;5.70;99.90
8858;DHT22;4465;50.904;4.696;2024-01-15T13:19:09;5.60;99.90
8858;DHT22;4465;50.904;4.696;2024-01-15T13:21:41;5.40;99.90
8858;DHT22;4465;50.904;4.696;2024-01-15T13:24:07;5.20;99.90
8858;DHT22;4465;50.904;4.696;2024-01-15T13:26:33;5.00;99.90
8858;DHT22;4465;50.904;4.696;2024-01-15T13:29:02;4.90;99.90
8858;DHT22;4465;50.904;4.696;2024-01-15T13:31:32;4.70;99.90
8858;DHT22;4465;50.904;4.696;2024-01-15T13:33:59;4.50;99.90
8858;DHT22;4465;50.904;4.696;2024-01-15T13:36:29;4.40;99.90
8858;DHT22;4465;50.904;4.696;2024-01-15T13:38:55;4.30;99.90
8858;DHT22;4465;50.904;4.696;2024-01-15T13:41:21;4.20;99.90
8858;DHT22;4465;50.904;4.696;2024-01-15T13:43:55;4.10;99.90
8858;DHT22;4465;50.904;4.696;2024-01-15T13:46:23;4.00;99.90
8858;DHT22;4465;50.904;4.696;2024-01-15T13:48:51;4.00;99.90
8858;DHT22;4465;50.904;4.696;2024-01-15T13:51:17;3.90;99.90
8858;DHT22;4465;50.904;4.696;2024-01-15T13:53:43;3.80;99.90
8858;DHT22;4465;50.904;4.696;2024-01-15T13:56:08;3.70;99.90
8858;DHT22;4465;50.904;4.696;2024-01-15T13:58:36;3.70;99.90
8858;DHT22;4465;50.904;4.696;2024-01-15T14:01:02;3.60;99.90
8858;DHT22;4465;50.904;4.696;2024-01-15T14:03:29;3.50;99.90
8858;DHT22;4465;50.904;4.696;2024-01-15T14:05:55;3.40;99.90
8858;DHT22;4465;50.904;4.696;2024-01-15T14:08:21;3.30;99.90
8858;DHT22;4465;50.904;4.696;2024-01-15T14:10:49;3.20;99.90
8858;DHT22;4465;50.904;4.696;2024-01-15T14:13:17;3.20;99.90
8858;DHT22;4465;50.904;4.696;2024-01-15T14:15:45;3.20;99.90
8858;DHT22;4465;50.904;4.696;2024-01-15T14:18:11;3.10;99.90
8858;DHT22;4465;50.904;4.696;2024-01-15T14:20:37;3.10;99.90
8858;DHT22;4465;50.904;4.696;2024-01-15T14:23:03;3.00;99.90
8858;DHT22;4465;50.904;4.696;2024-01-15T14:25:31;3.00;99.90
8858;DHT22;4465;50.904;4.696;2024-01-15T14:27:57;3.10;99.90
8858;DHT22;4465;50.904;4.696;2024-01-15T14:30:24;3.10;99.90
8858;DHT22;4465;50.904;4.696;2024-01-15T14:32:49;3.10;99.90
8858;DHT22;4465;50.904;4.696;2024-01-15T14:35:15;3.10;99.90
8858;DHT22;4465;50.904;4.696;2024-01-15T14:37:41;3.00;99.90
8858;DHT22;4465;50.904;4.696;2024-01-15T14:40:07;3.00;99.90
8858;DHT22;4465;50.904;4.696;2024-01-15T14:42:33;2.90;99.90
8858;DHT22;4465;50.904;4.696;2024-01-15T14:44:59;2.90;99.90
8858;DHT22;4465;50.904;4.696;2024-01-15T14:47:26;2.90;99.90
8858;DHT22;4465;50.904;4.696;2024-01-15T14:49:53;2.80;99.90
8858;DHT22;4465;50.904;4.696;2024-01-15T14:52:19;2.80;99.90
8858;DHT22;4465;50.904;4.696;2024-01-15T14:54:45;2.80;99.90
8858;DHT22;4465;50.904;4.696;2024-01-15T14:57:15;2.70;99.90
8858;DHT22;4465;50.904;4.696;2024-01-15T14:59:41;2.70;99.90
8858;DHT22;4465;50.904;4.696;2024-01-15T15:02:07;2.70;99.90
8858;DHT22;4465;50.904;4.696;2024-01-15T15:04:33;2.70;99.90
8858;DHT22;4465;50.904;4.696;2024-01-15T15:07:01;2.70;99.90
8858;DHT22;4465;50.904;4.696;2024-01-15T15:09:29;2.60;99.90
8858;DHT22;4465;50.904;4.696;2024-01-15T15:11:55;2.80;99.90
8858;DHT22;4465;50.904;4.696;2024-01-15T15:14:23;2.70;99.90
8858;DHT22;4465;50.904;4.696;2024-01-15T15:16:48;2.60;99.90
8858;DHT22;4465;50.904;4.696;2024-01-15T15:19:14;2.60;99.90
8858;DHT22;4465;50.904;4.696;2024-01-15T15:21:40;2.60;99.90
8858;DHT22;4465;50.904;4.696;2024-01-15T15:24:08;2.60;99.90
8858;DHT22;4465;50.904;4.696;2024-01-15T15:26:34;2.60;99.90
8858;DHT22;4465;50.904;4.696;2024-01-15T15:29:02;2.60;99.90
8858;DHT22;4465;50.904;4.696;2024-01-15T15:31:28;2.50;99.90
8858;DHT22;4465;50.904;4.696;2024-01-15T15:33:54;2.60;99.90
8858;DHT22;4465;50.904;4.696;2024-01-15T15:36:20;2.50;99.90
8858;DHT22;4465;50.904;4.696;2024-01-15T15:38:46;2.50;99.90
8858;DHT22;4465;50.904;4.696;2024-01-15T15:41:12;2.40;99.90
8858;DHT22;4465;50.904;4.696;2024-01-15T15:43:38;2.50;99.90
8858;DHT22;4465;50.904;4.696;2024-01-15T15:46:03;2.40;99.90
8858;DHT22;4465;50.904;4.696;2024-01-15T15:48:30;2.50;99.90
8858;DHT22;4465;50.904;4.696;2024-01-15T15:50:56;2.50;99.90
8858;DHT22;4465;50.904;4.696;2024-01-15T15:53:23;2.50;99.90
8858;DHT22;4465;50.904;4.696;2024-01-15T15:55:50;2.60;99.90
8858;DHT22;4465;50.904;4.696;2024-01-15T15:58:15;2.50;99.90
8858;DHT22;4465;50.904;4.696;2024-01-15T16:00:41;2.60;99.90
8858;DHT22;4465;50.904;4.696;2024-01-15T16:03:09;2.50;99.90
8858;DHT22;4465;50.904;4.696;2024-01-15T16:05:35;2.60;99.90
8858;DHT22;4465;50.904;4.696;2024-01-15T16:08:01;2.50;99.90
8858;DHT22;4465;50.904;4.696;2024-01-15T16:10:29;2.50;99.90
8858;DHT22;4465;50.904;4.696;2024-01-15T16:12:55;2.50;99.90
8858;DHT22;4465;50.904;4.696;2024-01-15T16:15:21;2.50;99.90
8858;DHT22;4465;50.904;4.696;2024-01-15T16:17:50;2.40;99.90
8858;DHT22;4465;50.904;4.696;2024-01-15T16:20:16;2.40;99.90
8858;DHT22;4465;50.904;4.696;2024-01-15T16:22:44;2.40;99.90